createdAt,value
2018-06-27T00:01:39.297Z,13.63
2018-06-27T00:04:08.137Z,13.62
2018-06-27T00:06:37.250Z,13.62
2018-06-27T00:09:08.124Z,13.60
2018-06-27T00:11:36.947Z,13.57
2018-06-27T00:14:06.340Z,13.57
2018-06-27T00:16:35.166Z,13.56
2018-06-27T00:19:04.038Z,13.51
2018-06-27T00:21:33.223Z,13.50
2018-06-27T00:24:02.056Z,13.46
2018-06-27T00:26:31.459Z,13.43
2018-06-27T00:29:00.915Z,13.40
2018-06-27T00:31:29.963Z,13.34
2018-06-27T00:33:59.248Z,13.29
2018-06-27T00:36:28.794Z,13.27
2018-06-27T00:38:57.569Z,13.18
2018-06-27T00:41:27.044Z,13.12
2018-06-27T00:43:56.038Z,13.14
2018-06-27T00:46:25.359Z,13.10
2018-06-27T00:48:54.235Z,13.08
2018-06-27T00:51:23.354Z,13.04
2018-06-27T00:53:57.421Z,13.03
2018-06-27T00:56:26.594Z,13.00
2018-06-27T00:58:55.420Z,12.98
2018-06-27T01:01:24.531Z,12.95
2018-06-27T01:03:54.166Z,12.89
2018-06-27T01:06:23.214Z,12.87
2018-06-27T01:08:52.274Z,12.85
2018-06-27T01:11:21.162Z,12.81
2018-06-27T01:13:49.954Z,12.71
2018-06-27T01:16:19.016Z,12.67
2018-06-27T01:18:48.052Z,12.62
2018-06-27T01:21:17.140Z,12.63
2018-06-27T01:23:46.014Z,12.61
2018-06-27T01:26:15.662Z,12.61
2018-06-27T01:28:45.366Z,12.54
2018-06-27T01:31:14.814Z,12.52
2018-06-27T01:33:43.995Z,12.53
2018-06-27T01:36:13.065Z,12.51
2018-06-27T01:38:42.107Z,12.51
2018-06-27T01:41:11.463Z,12.50
2018-06-27T01:43:40.271Z,12.52
2018-06-27T01:46:09.386Z,12.53
2018-06-27T01:48:38.588Z,12.53
2018-06-27T01:51:07.735Z,12.53
2018-06-27T01:53:38.139Z,12.53
2018-06-27T01:56:08.906Z,12.50
2018-06-27T01:58:38.111Z,12.49
2018-06-27T02:01:07.040Z,12.46
2018-06-27T02:03:35.814Z,12.47
2018-06-27T02:06:04.631Z,12.46
2018-06-27T02:08:33.406Z,12.45
2018-06-27T02:11:02.185Z,12.46
2018-06-27T02:13:31.233Z,12.43
2018-06-27T02:16:00.118Z,12.40
2018-06-27T02:18:29.175Z,12.38
2018-06-27T02:20:57.982Z,12.34
2018-06-27T02:23:26.824Z,12.30
2018-06-27T02:25:55.954Z,12.28
2018-06-27T02:28:25.324Z,12.27
2018-06-27T02:30:54.104Z,12.25
2018-06-27T02:33:29.752Z,12.22
2018-06-27T02:35:59.495Z,12.20
2018-06-27T02:38:29.023Z,12.19
2018-06-27T02:40:58.102Z,12.18
2018-06-27T02:43:27.267Z,12.17
2018-06-27T02:45:56.254Z,12.16
2018-06-27T02:48:26.018Z,12.14
2018-06-27T02:50:54.824Z,12.14
2018-06-27T02:53:24.618Z,12.13
2018-06-27T02:55:53.832Z,12.12
2018-06-27T02:58:22.907Z,12.12
2018-06-27T03:00:52.017Z,12.12
2018-06-27T03:03:20.983Z,12.10
2018-06-27T03:05:49.839Z,12.11
2018-06-27T03:08:18.643Z,12.10
2018-06-27T03:10:48.142Z,12.10
2018-06-27T03:13:17.591Z,12.09
2018-06-27T03:15:46.362Z,12.08
2018-06-27T03:18:15.159Z,12.09
2018-06-27T03:20:43.959Z,12.09
2018-06-27T03:23:12.800Z,12.10
2018-06-27T03:25:42.259Z,12.12
2018-06-27T03:28:11.691Z,12.14
2018-06-27T03:30:40.496Z,12.14
2018-06-27T03:33:09.490Z,12.16
2018-06-27T03:35:38.545Z,12.18
2018-06-27T03:38:07.602Z,12.21
2018-06-27T03:40:36.405Z,12.25
2018-06-27T03:43:05.365Z,12.27
2018-06-27T03:45:34.529Z,12.30
2018-06-27T03:48:04.163Z,12.34
2018-06-27T03:50:33.028Z,12.35
2018-06-27T03:53:02.949Z,12.37
2018-06-27T03:55:32.325Z,12.39
2018-06-27T03:58:01.468Z,12.42
2018-06-27T04:00:30.852Z,12.46
2018-06-27T04:03:00.179Z,12.52
2018-06-27T04:05:29.399Z,12.57
2018-06-27T04:07:58.245Z,12.59
2018-06-27T04:10:27.774Z,12.61
2018-06-27T04:12:57.248Z,12.61
2018-06-27T04:15:26.865Z,12.66
2018-06-27T04:17:55.761Z,12.69
2018-06-27T04:20:24.971Z,12.72
2018-06-27T04:22:58.850Z,12.77
2018-06-27T04:25:27.670Z,12.83
2018-06-27T04:27:57.263Z,12.86
2018-06-27T04:30:26.600Z,12.86
2018-06-27T04:32:55.729Z,12.86
2018-06-27T04:35:24.701Z,12.91
2018-06-27T04:37:54.135Z,12.93
2018-06-27T04:40:23.311Z,12.93
2018-06-27T04:42:52.491Z,12.99
2018-06-27T04:45:21.668Z,13.06
2018-06-27T04:47:50.819Z,13.12
2018-06-27T04:50:19.660Z,13.15
2018-06-27T04:52:49.410Z,13.19
2018-06-27T04:55:18.224Z,13.22
2018-06-27T04:57:47.173Z,13.25
2018-06-27T05:00:16.446Z,13.26
2018-06-27T05:02:45.792Z,13.28
2018-06-27T05:05:14.927Z,13.29
2018-06-27T05:07:43.771Z,13.32
2018-06-27T05:10:12.587Z,13.37
2018-06-27T05:12:41.553Z,13.37
2018-06-27T05:15:10.529Z,13.38
2018-06-27T05:17:39.660Z,13.41
2018-06-27T05:20:09.080Z,13.46
2018-06-27T05:22:38.508Z,13.56
2018-06-27T05:25:07.432Z,13.60
2018-06-27T05:27:37.135Z,13.66
2018-06-27T05:30:05.933Z,13.72
2018-06-27T05:32:35.429Z,13.77
2018-06-27T05:35:04.972Z,13.80
2018-06-27T05:37:34.404Z,13.83
2018-06-27T05:40:03.286Z,13.84
2018-06-27T05:42:32.446Z,13.86
2018-06-27T05:45:01.316Z,13.88
2018-06-27T05:47:30.840Z,13.93
2018-06-27T05:50:00.571Z,13.98
2018-06-27T05:52:30.968Z,14.03
2018-06-27T05:55:05.291Z,14.09
2018-06-27T05:57:34.126Z,14.07
2018-06-27T06:00:03.684Z,14.10
2018-06-27T06:02:32.510Z,14.17
2018-06-27T06:05:01.602Z,14.25
2018-06-27T06:07:30.623Z,14.24
2018-06-27T06:10:00.056Z,14.22
2018-06-27T06:12:29.098Z,14.20
2018-06-27T06:14:58.600Z,14.25
2018-06-27T06:17:28.111Z,14.28
2018-06-27T06:19:57.113Z,14.24
2018-06-27T06:22:26.866Z,14.27
2018-06-27T06:24:55.679Z,14.32
2018-06-27T06:27:24.454Z,14.37
2018-06-27T06:29:53.633Z,14.44
2018-06-27T06:32:22.413Z,14.47
2018-06-27T06:34:51.255Z,14.51
2018-06-27T06:37:20.466Z,14.57
2018-06-27T06:39:49.484Z,14.57
2018-06-27T06:42:18.342Z,14.57
2018-06-27T06:44:47.509Z,14.59
2018-06-27T06:47:16.633Z,14.67
2018-06-27T06:49:46.100Z,14.63
2018-06-27T06:52:15.305Z,14.66
2018-06-27T06:54:44.106Z,14.71
2018-06-27T06:57:13.004Z,14.70
2018-06-27T06:59:41.851Z,14.74
2018-06-27T07:02:11.030Z,14.76
2018-06-27T07:04:40.141Z,14.81
2018-06-27T07:07:08.925Z,14.84
2018-06-27T07:09:38.575Z,14.88
2018-06-27T07:12:08.079Z,14.89
2018-06-27T07:14:36.880Z,14.92
2018-06-27T07:17:05.703Z,14.92
2018-06-27T07:19:35.075Z,14.98
2018-06-27T07:22:03.936Z,15.04
2018-06-27T07:24:33.183Z,15.03
2018-06-27T07:27:02.342Z,15.05
2018-06-27T07:29:31.240Z,15.10
2018-06-27T07:32:00.031Z,15.13
2018-06-27T07:34:28.913Z,15.19
2018-06-27T07:36:58.467Z,15.29
2018-06-27T07:39:27.293Z,15.36
2018-06-27T07:41:56.451Z,15.48
2018-06-27T07:44:25.619Z,15.56
2018-06-27T07:46:55.603Z,15.57
2018-06-27T07:49:25.045Z,15.57
2018-06-27T07:51:54.065Z,15.63
2018-06-27T07:54:23.157Z,15.67
2018-06-27T07:56:51.979Z,15.69
2018-06-27T07:59:21.196Z,15.71
2018-06-27T08:01:50.091Z,15.73
2018-06-27T08:04:18.930Z,15.78
2018-06-27T08:06:48.249Z,15.88
2018-06-27T08:09:17.419Z,15.95
2018-06-27T08:11:46.405Z,16.03
2018-06-27T08:14:15.821Z,16.06
2018-06-27T08:16:45.250Z,16.16
2018-06-27T08:19:14.118Z,16.25
2018-06-27T08:21:42.977Z,16.27
2018-06-27T08:24:12.255Z,16.28
2018-06-27T08:26:41.117Z,16.31
2018-06-27T08:29:10.730Z,16.35
2018-06-27T08:31:40.275Z,16.48
2018-06-27T08:34:09.816Z,16.54
2018-06-27T08:36:39.337Z,16.62
2018-06-27T08:39:09.440Z,16.68
2018-06-27T08:41:39.245Z,16.79
2018-06-27T08:44:08.245Z,16.89
2018-06-27T08:46:37.079Z,16.86
2018-06-27T08:49:06.252Z,16.93
2018-06-27T08:51:35.366Z,17.01
2018-06-27T08:54:05.199Z,17.11
2018-06-27T08:56:34.042Z,17.21
2018-06-27T08:59:03.266Z,17.30
2018-06-27T09:01:32.665Z,17.37
2018-06-27T09:04:02.143Z,17.33
2018-06-27T09:06:30.967Z,17.34
2018-06-27T09:09:00.195Z,17.42
2018-06-27T09:11:29.174Z,17.50
2018-06-27T09:13:58.769Z,17.55
2018-06-27T09:16:28.302Z,17.65
2018-06-27T09:18:57.749Z,17.70
2018-06-27T09:21:26.838Z,17.77
2018-06-27T09:23:56.390Z,17.85
2018-06-27T09:26:26.121Z,17.96
2018-06-27T09:28:55.290Z,18.08
2018-06-27T09:31:24.128Z,18.21
2018-06-27T09:33:52.928Z,18.41
2018-06-27T09:36:22.151Z,18.56
2018-06-27T09:38:50.979Z,18.68
2018-06-27T09:41:20.058Z,18.88
2018-06-27T09:43:49.594Z,19.03
2018-06-27T09:46:18.844Z,19.05
2018-06-27T09:48:47.672Z,19.21
2018-06-27T09:51:16.848Z,19.46
2018-06-27T09:53:45.706Z,19.69
2018-06-27T09:56:15.104Z,19.71
2018-06-27T09:58:44.163Z,19.72
2018-06-27T10:01:13.620Z,19.81
2018-06-27T10:03:43.060Z,20.08
2018-06-27T10:06:12.778Z,20.39
2018-06-27T10:08:42.123Z,20.68
2018-06-27T10:11:11.083Z,20.91
2018-06-27T10:13:40.143Z,21.20
2018-06-27T10:16:08.969Z,21.48
2018-06-27T10:18:38.292Z,21.57
2018-06-27T10:21:07.233Z,21.76
2018-06-27T10:23:36.280Z,22.05
2018-06-27T10:26:06.019Z,22.28
2018-06-27T10:28:37.008Z,22.37
2018-06-27T10:31:06.071Z,22.31
2018-06-27T10:33:35.557Z,22.50
2018-06-27T10:36:04.816Z,22.71
2018-06-27T10:38:34.234Z,23.00
2018-06-27T10:41:03.409Z,23.07
2018-06-27T10:43:32.293Z,23.24
2018-06-27T10:46:01.079Z,23.55
2018-06-27T10:48:30.292Z,23.81
2018-06-27T10:50:59.419Z,24.02
2018-06-27T10:53:28.644Z,24.20
2018-06-27T10:55:57.497Z,24.16
2018-06-27T10:58:26.887Z,24.20
2018-06-27T11:00:55.744Z,24.23
2018-06-27T11:03:24.569Z,24.25
2018-06-27T11:05:53.503Z,24.23
2018-06-27T11:08:22.575Z,24.45
2018-06-27T11:10:51.746Z,24.60
2018-06-27T11:13:21.302Z,24.83
2018-06-27T11:15:50.715Z,25.06
2018-06-27T11:18:19.781Z,25.27
2018-06-27T11:20:49.149Z,25.39
2018-06-27T11:23:18.285Z,25.33
2018-06-27T11:25:47.114Z,25.34
2018-06-27T11:28:17.246Z,25.36
2018-06-27T11:30:46.900Z,25.58
2018-06-27T11:33:15.809Z,25.55
2018-06-27T11:35:44.793Z,25.46
2018-06-27T11:38:14.028Z,25.61
2018-06-27T11:40:42.891Z,25.70
2018-06-27T11:43:11.825Z,25.89
2018-06-27T11:45:40.985Z,26.16
2018-06-27T11:48:09.910Z,26.11
2018-06-27T11:50:39.059Z,26.18
2018-06-27T11:53:08.614Z,26.38
2018-06-27T11:55:37.717Z,26.61
2018-06-27T11:58:06.535Z,26.75
2018-06-27T12:00:35.384Z,26.85
2018-06-27T12:03:04.626Z,27.07
2018-06-27T12:05:33.439Z,27.07
2018-06-27T12:08:03.072Z,27.38
2018-06-27T12:10:32.138Z,27.61
2018-06-27T12:13:02.263Z,27.77
2018-06-27T12:15:31.258Z,27.98
2018-06-27T12:18:00.458Z,28.07
2018-06-27T12:20:29.647Z,28.01
2018-06-27T12:22:58.663Z,28.13
2018-06-27T12:25:27.807Z,28.07
2018-06-27T12:27:56.545Z,27.93
2018-06-27T12:30:25.831Z,28.09
2018-06-27T12:32:54.744Z,28.32
2018-06-27T12:35:24.215Z,28.54
2018-06-27T12:37:53.410Z,28.46
2018-06-27T12:40:22.746Z,28.60
2018-06-27T12:42:51.517Z,28.78
2018-06-27T12:45:20.565Z,28.80
2018-06-27T12:47:49.503Z,28.99
2018-06-27T12:50:18.986Z,29.24
2018-06-27T12:52:47.972Z,29.47
2018-06-27T12:55:17.367Z,29.40
2018-06-27T12:57:46.142Z,29.27
2018-06-27T13:00:15.222Z,29.36
2018-06-27T13:02:44.079Z,29.57
2018-06-27T13:05:13.359Z,29.74
2018-06-27T13:07:42.496Z,29.89
2018-06-27T13:10:11.594Z,29.97
2018-06-27T13:12:40.994Z,29.96
2018-06-27T13:15:10.031Z,29.66
2018-06-27T13:17:39.173Z,29.78
2018-06-27T13:20:08.119Z,30.00
2018-06-27T13:22:36.908Z,29.48
2018-06-27T13:25:05.778Z,29.56
2018-06-27T13:27:34.644Z,29.63
2018-06-27T13:30:03.491Z,29.59
2018-06-27T13:32:32.587Z,29.64
2018-06-27T13:35:02.014Z,29.76
2018-06-27T13:37:31.174Z,29.94
2018-06-27T13:39:59.982Z,30.17
2018-06-27T13:42:28.843Z,30.01
2018-06-27T13:44:58.442Z,30.07
2018-06-27T13:47:27.507Z,30.05
2018-06-27T13:49:56.628Z,30.12
2018-06-27T13:52:26.032Z,30.13
2018-06-27T13:54:56.500Z,29.61
2018-06-27T13:57:26.445Z,29.77
2018-06-27T13:59:55.520Z,30.00
2018-06-27T14:02:24.503Z,30.35
2018-06-27T14:04:53.621Z,30.62
2018-06-27T14:07:22.422Z,30.42
2018-06-27T14:09:51.366Z,30.40
2018-06-27T14:12:20.143Z,30.50
2018-06-27T14:14:49.188Z,30.32
2018-06-27T14:17:18.032Z,30.27
2018-06-27T14:19:47.390Z,30.28
2018-06-27T14:22:16.235Z,30.34
2018-06-27T14:24:45.586Z,30.07
2018-06-27T14:27:14.417Z,29.86
2018-06-27T14:29:43.174Z,29.97
2018-06-27T14:32:12.021Z,29.95
2018-06-27T14:34:41.352Z,29.87
2018-06-27T14:37:10.145Z,29.99
2018-06-27T14:39:39.276Z,29.98
2018-06-27T14:42:08.047Z,29.70
2018-06-27T14:44:37.108Z,29.84
2018-06-27T14:47:05.927Z,29.72
2018-06-27T14:49:34.694Z,29.49
2018-06-27T14:52:03.577Z,29.57
2018-06-27T14:54:32.965Z,29.72
2018-06-27T14:57:02.424Z,29.65
2018-06-27T14:59:31.566Z,29.41
2018-06-27T15:02:00.316Z,29.18
2018-06-27T15:04:29.340Z,28.85
2018-06-27T15:06:58.435Z,28.87
2018-06-27T15:09:27.941Z,28.87
2018-06-27T15:11:56.709Z,28.90
2018-06-27T15:14:25.574Z,28.80
2018-06-27T15:16:54.772Z,28.98
2018-06-27T15:19:23.712Z,29.05
2018-06-27T15:21:53.500Z,28.98
2018-06-27T15:24:22.608Z,29.15
2018-06-27T15:26:51.619Z,29.29
2018-06-27T15:29:20.641Z,29.21
2018-06-27T15:31:50.328Z,29.22
2018-06-27T15:34:19.300Z,29.18
2018-06-27T15:36:48.349Z,28.97
2018-06-27T15:39:17.687Z,28.55
2018-06-27T15:41:46.956Z,28.41
2018-06-27T15:44:16.221Z,28.27
2018-06-27T15:46:45.363Z,28.15
2018-06-27T15:49:15.009Z,28.19
2018-06-27T15:51:44.058Z,28.30
2018-06-27T15:54:12.840Z,28.36
2018-06-27T15:56:41.631Z,28.27
2018-06-27T15:59:10.592Z,28.01
2018-06-27T16:01:39.593Z,27.84
2018-06-27T16:04:08.888Z,27.88
2018-06-27T16:06:37.790Z,27.87
2018-06-27T16:09:08.492Z,27.86
2018-06-27T16:11:37.367Z,27.94
2018-06-27T16:14:06.711Z,28.02
2018-06-27T16:16:35.769Z,28.09
2018-06-27T16:19:04.600Z,28.18
2018-06-27T16:21:33.958Z,28.15
2018-06-27T16:24:03.273Z,28.04
2018-06-27T16:26:32.263Z,27.99
2018-06-27T16:29:01.248Z,28.12
2018-06-27T16:31:30.096Z,28.16
2018-06-27T16:33:58.969Z,28.23
2018-06-27T16:36:28.252Z,28.25
2018-06-27T16:38:57.450Z,28.06
2018-06-27T16:41:26.807Z,27.75
2018-06-27T16:43:55.606Z,27.59
2018-06-27T16:46:25.075Z,27.56
2018-06-27T16:48:54.233Z,27.57
2018-06-27T16:51:23.414Z,27.52
2018-06-27T16:53:52.686Z,27.36
2018-06-27T16:56:21.958Z,27.28
2018-06-27T16:58:50.835Z,27.27
2018-06-27T17:01:20.365Z,27.14
2018-06-27T17:03:49.595Z,27.24
2018-06-27T17:06:18.806Z,27.33
2018-06-27T17:08:48.073Z,27.38
2018-06-27T17:11:17.462Z,27.44
2018-06-27T17:13:46.825Z,27.55
2018-06-27T17:16:15.807Z,27.59
2018-06-27T17:18:45.223Z,27.60
2018-06-27T17:21:15.190Z,27.60
2018-06-27T17:23:44.147Z,27.45
2018-06-27T17:26:13.333Z,27.34
2018-06-27T17:28:42.811Z,27.15
2018-06-27T17:31:12.310Z,27.02
2018-06-27T17:33:41.213Z,26.92
2018-06-27T17:36:10.015Z,26.76
2018-06-27T17:38:38.768Z,26.67
2018-06-27T17:41:08.212Z,26.51
2018-06-27T17:43:37.420Z,26.52
2018-06-27T17:46:06.529Z,26.43
2018-06-27T17:48:35.285Z,26.35
2018-06-27T17:51:04.574Z,26.22
2018-06-27T17:53:34.991Z,26.15
2018-06-27T17:56:03.817Z,26.12
2018-06-27T17:58:32.996Z,26.12
2018-06-27T18:01:02.158Z,26.10
2018-06-27T18:03:32.471Z,25.98
2018-06-27T18:06:01.295Z,25.87
2018-06-27T18:08:30.025Z,25.79
2018-06-27T18:10:59.177Z,25.82
2018-06-27T18:13:28.016Z,25.80
2018-06-27T18:15:56.982Z,25.74
2018-06-27T18:18:25.955Z,25.69
2018-06-27T18:20:55.642Z,25.66
2018-06-27T18:23:24.832Z,25.61
2018-06-27T18:25:53.905Z,25.47
2018-06-27T18:28:23.336Z,25.31
2018-06-27T18:30:52.172Z,25.16
2018-06-27T18:33:21.105Z,25.07
2018-06-27T18:35:49.854Z,25.02
2018-06-27T18:38:19.634Z,25.01
2018-06-27T18:40:49.345Z,24.90
2018-06-27T18:43:18.142Z,24.78
2018-06-27T18:45:46.829Z,24.69
2018-06-27T18:48:15.840Z,24.65
2018-06-27T18:50:44.575Z,24.64
2018-06-27T18:53:13.614Z,24.58
2018-06-27T18:55:42.978Z,24.43
2018-06-27T18:58:12.031Z,24.25
2018-06-27T19:00:41.406Z,24.09
2018-06-27T19:03:10.460Z,23.97
2018-06-27T19:05:39.372Z,23.88
2018-06-27T19:08:08.431Z,23.82
2018-06-27T19:10:37.139Z,23.68
2018-06-27T19:13:06.256Z,23.65
2018-06-27T19:15:35.286Z,23.56
2018-06-27T19:18:04.426Z,23.53
2018-06-27T19:20:33.417Z,23.41
2018-06-27T19:23:02.175Z,23.31
2018-06-27T19:25:31.824Z,23.16
2018-06-27T19:28:00.876Z,23.06
2018-06-27T19:30:29.869Z,23.00
2018-06-27T19:32:58.883Z,22.94
2018-06-27T19:35:28.135Z,22.85
2018-06-27T19:37:57.408Z,22.79
2018-06-27T19:40:26.660Z,22.74
2018-06-27T19:45:49.094Z,22.58
2018-06-27T19:48:18.128Z,22.54
2018-06-27T19:50:47.075Z,22.41
2018-06-27T19:53:16.141Z,22.35
2018-06-27T19:55:45.191Z,22.26
2018-06-27T19:58:13.908Z,22.18
2018-06-27T20:00:42.647Z,22.08
2018-06-27T20:03:11.764Z,22.03
2018-06-27T20:05:41.009Z,21.95
2018-06-27T20:08:09.814Z,21.90
2018-06-27T20:10:39.110Z,21.89
2018-06-27T20:13:07.834Z,21.78
2018-06-27T20:15:37.181Z,21.71
2018-06-27T20:18:06.368Z,21.66
2018-06-27T20:20:35.408Z,21.56
2018-06-27T20:23:04.167Z,21.50
2018-06-27T20:25:32.917Z,21.41
2018-06-27T20:28:01.617Z,21.33
2018-06-27T20:30:30.909Z,21.20
2018-06-27T20:32:59.961Z,21.11
2018-06-27T20:35:29.019Z,21.00
2018-06-27T20:37:57.714Z,20.91
2018-06-27T20:40:26.506Z,20.82
2018-06-27T20:42:55.342Z,20.77
2018-06-27T20:45:24.351Z,20.71
2018-06-27T20:47:53.437Z,20.66
2018-06-27T20:50:22.178Z,20.63
2018-06-27T20:53:05.280Z,20.58
2018-06-27T20:55:34.306Z,20.51
2018-06-27T20:58:03.265Z,20.48
2018-06-27T21:00:32.391Z,20.41
2018-06-27T21:03:07.018Z,20.29
2018-06-27T21:05:35.996Z,20.16
2018-06-27T21:08:05.335Z,20.13
2018-06-27T21:10:34.223Z,20.07
2018-06-27T21:13:03.297Z,20.03
2018-06-27T21:15:32.592Z,19.95
2018-06-27T21:18:01.391Z,19.89
2018-06-27T21:20:30.147Z,19.84
2018-06-27T21:22:58.880Z,19.79
2018-06-27T21:25:28.226Z,19.77
2018-06-27T21:27:57.515Z,19.66
2018-06-27T21:30:26.355Z,19.59
2018-06-27T21:32:55.720Z,19.58
2018-06-27T21:35:24.440Z,19.55
2018-06-27T21:37:53.686Z,19.47
2018-06-27T21:40:22.447Z,19.36
2018-06-27T21:42:52.807Z,19.32
2018-06-27T21:45:21.848Z,19.28
2018-06-27T21:47:50.585Z,19.28
2018-06-27T21:50:19.389Z,19.22
2018-06-27T21:52:48.095Z,19.16
2018-06-27T21:55:17.171Z,19.13
2018-06-27T21:57:46.245Z,19.12
2018-06-27T22:00:15.907Z,19.10
2018-06-27T22:02:45.145Z,19.03
2018-06-27T22:05:14.424Z,19.00
2018-06-27T22:07:43.939Z,18.94
2018-06-27T22:10:12.926Z,18.92
2018-06-27T22:12:42.273Z,18.88
2018-06-27T22:15:11.375Z,18.87
2018-06-27T22:17:40.957Z,18.84
2018-06-27T22:20:09.683Z,18.77
2018-06-27T22:22:39.004Z,18.76
2018-06-27T22:25:07.737Z,18.77
2018-06-27T22:27:36.503Z,18.80
2018-06-27T22:30:05.364Z,18.79
2018-06-27T22:32:34.909Z,18.74
2018-06-27T22:35:04.052Z,18.70
2018-06-27T22:37:32.940Z,18.66
2018-06-27T22:40:01.983Z,18.62
2018-06-27T22:42:30.810Z,18.56
2018-06-27T22:44:59.885Z,18.55
2018-06-27T22:47:29.257Z,18.49
2018-06-27T22:49:58.307Z,18.42
2018-06-27T22:52:27.622Z,18.36
2018-06-27T22:54:56.591Z,18.34
2018-06-27T22:57:25.603Z,18.29
2018-06-27T22:59:54.533Z,18.26
2018-06-27T23:02:23.268Z,18.24
2018-06-27T23:04:52.066Z,18.19
2018-06-27T23:07:21.123Z,18.16
2018-06-27T23:09:50.450Z,18.12
2018-06-27T23:12:19.510Z,18.08
2018-06-27T23:14:48.235Z,18.06
2018-06-27T23:17:17.017Z,18.06
2018-06-27T23:19:46.049Z,18.00
2018-06-27T23:22:26.180Z,17.96
2018-06-27T23:24:55.270Z,17.94
2018-06-27T23:27:24.410Z,17.90
2018-06-27T23:29:53.223Z,17.86
2018-06-27T23:32:22.234Z,17.82
2018-06-27T23:34:51.164Z,17.77
2018-06-27T23:37:19.948Z,17.72
2018-06-27T23:39:48.658Z,17.67
2018-06-27T23:42:17.379Z,17.63
2018-06-27T23:44:46.434Z,17.60
2018-06-27T23:47:15.388Z,17.56
2018-06-27T23:49:44.736Z,17.52
2018-06-27T23:52:13.775Z,17.52
2018-06-27T23:54:42.823Z,17.51
2018-06-27T23:57:11.915Z,17.48
2018-06-27T23:59:41.020Z,17.47
